sensor_id;sensor_type;location;lat;lon;timestamp;P1;durP1;ratioP1;P2;durP2;ratioP2
4112;SDS011;2070;51.042;7.056;2023-04-03T00:00:39;4.33;;;2.20;;
4112;SDS011;2070;51.042;7.056;2023-04-03T00:03:04;6.10;;;3.47;;
4112;SDS011;2070;51.042;7.056;2023-04-03T00:05:30;4.10;;;3.37;;
4112;SDS011;2070;51.042;7.056;2023-04-03T00:07:55;6.23;;;4.00;;
4112;SDS011;2070;51.042;7.056;2023-04-03T00:10:20;5.80;;;5.30;;
4112;SDS011;2070;51.042;7.056;2023-04-03T00:12:45;4.93;;;4.43;;
4112;SDS011;2070;51.042;7.056;2023-04-03T00:15:11;10.50;;;4.47;;
4112;SDS011;2070;51.042;7.056;2023-04-03T00:17:36;4.60;;;4.20;;
4112;SDS011;2070;51.042;7.056;2023-04-03T00:20:02;5.27;;;3.30;;
4112;SDS011;2070;51.042;7.056;2023-04-03T00:22:27;3.70;;;3.40;;
4112;SDS011;2070;51.042;7.056;2023-04-03T00:24:53;5.03;;;3.90;;
4112;SDS011;2070;51.042;7.056;2023-04-03T00:27:19;25.40;;;6.20;;
4112;SDS011;2070;51.042;7.056;2023-04-03T00:29:44;8.50;;;4.63;;
4112;SDS011;2070;51.042;7.056;2023-04-03T00:32:09;6.77;;;4.20;;
4112;SDS011;2070;51.042;7.056;2023-04-03T00:34:35;3.20;;;2.90;;
4112;SDS011;2070;51.042;7.056;2023-04-03T00:37:00;3.93;;;3.60;;
4112;SDS011;2070;51.042;7.056;2023-04-03T00:39:25;5.70;;;2.90;;
4112;SDS011;2070;51.042;7.056;2023-04-03T00:41:50;3.23;;;2.93;;
4112;SDS011;2070;51.042;7.056;2023-04-03T00:44:23;7.07;;;3.67;;
4112;SDS011;2070;51.042;7.056;2023-04-03T00:47:04;4.50;;;2.87;;
4112;SDS011;2070;51.042;7.056;2023-04-03T00:49:30;4.90;;;4.07;;
4112;SDS011;2070;51.042;7.056;2023-04-03T00:51:56;7.27;;;3.10;;
4112;SDS011;2070;51.042;7.056;2023-04-03T00:54:21;3.00;;;2.80;;
4112;SDS011;2070;51.042;7.056;2023-04-03T00:56:47;2.80;;;2.60;;
4112;SDS011;2070;51.042;7.056;2023-04-03T00:59:14;7.07;;;4.50;;
4112;SDS011;2070;51.042;7.056;2023-04-03T01:01:40;5.50;;;4.27;;
4112;SDS011;2070;51.042;7.056;2023-04-03T01:04:24;2.90;;;2.70;;
4112;SDS011;2070;51.042;7.056;2023-04-03T01:06:51;5.20;;;3.00;;
4112;SDS011;2070;51.042;7.056;2023-04-03T01:09:17;4.83;;;3.47;;
4112;SDS011;2070;51.042;7.056;2023-04-03T01:11:42;7.10;;;2.97;;
4112;SDS011;2070;51.042;7.056;2023-04-03T01:14:07;3.40;;;3.10;;
4112;SDS011;2070;51.042;7.056;2023-04-03T01:16:32;3.07;;;2.87;;
4112;SDS011;2070;51.042;7.056;2023-04-03T01:18:58;4.90;;;2.90;;
4112;SDS011;2070;51.042;7.056;2023-04-03T01:26:35;8.53;;;3.33;;
4112;SDS011;2070;51.042;7.056;2023-04-03T01:29:01;4.30;;;3.13;;
4112;SDS011;2070;51.042;7.056;2023-04-03T01:33:51;4.13;;;3.30;;
4112;SDS011;2070;51.042;7.056;2023-04-03T01:36:21;3.30;;;3.00;;
4112;SDS011;2070;51.042;7.056;2023-04-03T01:38:47;3.23;;;2.77;;
4112;SDS011;2070;51.042;7.056;2023-04-03T01:41:12;3.83;;;2.70;;
4112;SDS011;2070;51.042;7.056;2023-04-03T01:43:37;3.20;;;2.90;;
4112;SDS011;2070;51.042;7.056;2023-04-03T01:46:03;4.90;;;3.03;;
4112;SDS011;2070;51.042;7.056;2023-04-03T01:48:28;3.83;;;2.67;;
4112;SDS011;2070;51.042;7.056;2023-04-03T01:50:53;4.60;;;3.40;;
4112;SDS011;2070;51.042;7.056;2023-04-03T01:53:19;4.17;;;3.10;;
4112;SDS011;2070;51.042;7.056;2023-04-03T01:55:44;5.20;;;2.53;;
4112;SDS011;2070;51.042;7.056;2023-04-03T01:58:10;2.40;;;2.17;;
4112;SDS011;2070;51.042;7.056;2023-04-03T02:00:35;2.93;;;2.73;;
4112;SDS011;2070;51.042;7.056;2023-04-03T02:03:01;3.57;;;3.23;;
4112;SDS011;2070;51.042;7.056;2023-04-03T02:05:26;8.10;;;3.27;;
4112;SDS011;2070;51.042;7.056;2023-04-03T02:07:51;3.30;;;3.10;;
4112;SDS011;2070;51.042;7.056;2023-04-03T02:10:16;4.87;;;3.20;;
4112;SDS011;2070;51.042;7.056;2023-04-03T02:12:41;5.27;;;3.97;;
4112;SDS011;2070;51.042;7.056;2023-04-03T02:15:07;2.97;;;2.67;;
4112;SDS011;2070;51.042;7.056;2023-04-03T02:17:32;7.13;;;3.17;;
4112;SDS011;2070;51.042;7.056;2023-04-03T02:19:57;2.77;;;2.57;;
4112;SDS011;2070;51.042;7.056;2023-04-03T02:22:22;2.90;;;2.70;;
4112;SDS011;2070;51.042;7.056;2023-04-03T02:24:48;5.73;;;3.23;;
4112;SDS011;2070;51.042;7.056;2023-04-03T02:27:13;4.43;;;2.47;;
4112;SDS011;2070;51.042;7.056;2023-04-03T02:29:38;2.43;;;2.20;;
4112;SDS011;2070;51.042;7.056;2023-04-03T02:32:04;3.70;;;3.37;;
4112;SDS011;2070;51.042;7.056;2023-04-03T02:34:29;10.80;;;3.70;;
4112;SDS011;2070;51.042;7.056;2023-04-03T02:36:54;3.13;;;2.57;;
4112;SDS011;2070;51.042;7.056;2023-04-03T02:39:20;2.70;;;2.50;;
4112;SDS011;2070;51.042;7.056;2023-04-03T02:41:45;7.00;;;3.57;;
4112;SDS011;2070;51.042;7.056;2023-04-03T02:44:10;10.23;;;3.50;;
4112;SDS011;2070;51.042;7.056;2023-04-03T02:46:36;4.93;;;3.27;;
4112;SDS011;2070;51.042;7.056;2023-04-03T02:49:01;17.17;;;2.50;;
4112;SDS011;2070;51.042;7.056;2023-04-03T02:51:27;3.80;;;3.50;;
4112;SDS011;2070;51.042;7.056;2023-04-03T02:53:52;8.90;;;3.40;;
4112;SDS011;2070;51.042;7.056;2023-04-03T02:56:18;3.90;;;3.60;;
4112;SDS011;2070;51.042;7.056;2023-04-03T02:58:45;3.10;;;2.90;;
4112;SDS011;2070;51.042;7.056;2023-04-03T03:01:10;3.13;;;2.93;;
4112;SDS011;2070;51.042;7.056;2023-04-03T03:03:35;3.20;;;2.90;;
4112;SDS011;2070;51.042;7.056;2023-04-03T03:06:33;2.70;;;2.27;;
4112;SDS011;2070;51.042;7.056;2023-04-03T03:08:52;2.70;;;2.43;;
4112;SDS011;2070;51.042;7.056;2023-04-03T03:11:17;2.93;;;2.70;;
4112;SDS011;2070;51.042;7.056;2023-04-03T03:13:42;3.07;;;2.80;;
4112;SDS011;2070;51.042;7.056;2023-04-03T03:16:08;1.80;;;1.70;;
4112;SDS011;2070;51.042;7.056;2023-04-03T03:18:33;2.47;;;2.30;;
4112;SDS011;2070;51.042;7.056;2023-04-03T03:20:59;4.23;;;3.87;;
4112;SDS011;2070;51.042;7.056;2023-04-03T03:23:26;3.57;;;2.17;;
4112;SDS011;2070;51.042;7.056;2023-04-03T03:25:55;2.03;;;1.77;;
4112;SDS011;2070;51.042;7.056;2023-04-03T03:28:20;6.37;;;2.40;;
4112;SDS011;2070;51.042;7.056;2023-04-03T03:30:46;9.50;;;2.87;;
4112;SDS011;2070;51.042;7.056;2023-04-03T03:33:11;1.83;;;1.73;;
4112;SDS011;2070;51.042;7.056;2023-04-03T03:35:36;1.33;;;1.23;;
4112;SDS011;2070;51.042;7.056;2023-04-03T03:38:01;3.10;;;1.83;;
4112;SDS011;2070;51.042;7.056;2023-04-03T03:40:27;2.50;;;1.80;;
4112;SDS011;2070;51.042;7.056;2023-04-03T03:42:52;4.43;;;1.53;;
4112;SDS011;2070;51.042;7.056;2023-04-03T03:45:17;2.10;;;1.90;;
4112;SDS011;2070;51.042;7.056;2023-04-03T03:47:42;2.80;;;1.20;;
4112;SDS011;2070;51.042;7.056;2023-04-03T03:50:08;12.80;;;1.93;;
4112;SDS011;2070;51.042;7.056;2023-04-03T03:52:33;1.77;;;1.07;;
4112;SDS011;2070;51.042;7.056;2023-04-03T03:54:58;6.70;;;1.77;;
4112;SDS011;2070;51.042;7.056;2023-04-03T03:57:24;2.80;;;1.50;;
4112;SDS011;2070;51.042;7.056;2023-04-03T03:59:51;1.60;;;1.20;;
4112;SDS011;2070;51.042;7.056;2023-04-03T04:02:17;5.57;;;1.27;;
4112;SDS011;2070;51.042;7.056;2023-04-03T04:04:42;9.70;;;1.50;;
4112;SDS011;2070;51.042;7.056;2023-04-03T04:07:08;6.20;;;2.00;;
4112;SDS011;2070;51.042;7.056;2023-04-03T04:09:33;2.33;;;1.27;;
4112;SDS011;2070;51.042;7.056;2023-04-03T04:11:58;2.40;;;2.17;;
4112;SDS011;2070;51.042;7.056;2023-04-03T04:14:23;2.07;;;1.10;;
4112;SDS011;2070;51.042;7.056;2023-04-03T04:16:48;2.37;;;0.90;;
4112;SDS011;2070;51.042;7.056;2023-04-03T04:19:14;2.13;;;1.30;;
4112;SDS011;2070;51.042;7.056;2023-04-03T04:21:40;1.63;;;1.20;;
4112;SDS011;2070;51.042;7.056;2023-04-03T04:24:06;3.93;;;1.50;;
4112;SDS011;2070;51.042;7.056;2023-04-03T04:26:32;3.13;;;0.90;;
4112;SDS011;2070;51.042;7.056;2023-04-03T04:28:57;3.50;;;1.07;;
4112;SDS011;2070;51.042;7.056;2023-04-03T04:31:22;12.93;;;1.23;;
4112;SDS011;2070;51.042;7.056;2023-04-03T04:33:47;1.50;;;1.40;;
4112;SDS011;2070;51.042;7.056;2023-04-03T04:36:12;1.30;;;1.03;;
4112;SDS011;2070;51.042;7.056;2023-04-03T04:38:39;10.37;;;1.70;;
4112;SDS011;2070;51.042;7.056;2023-04-03T04:41:04;2.90;;;1.30;;
4112;SDS011;2070;51.042;7.056;2023-04-03T04:43:30;2.60;;;1.43;;
4112;SDS011;2070;51.042;7.056;2023-04-03T04:46:04;1.77;;;1.40;;
4112;SDS011;2070;51.042;7.056;2023-04-03T04:48:30;6.93;;;1.47;;
4112;SDS011;2070;51.042;7.056;2023-04-03T04:50:55;2.37;;;1.40;;
4112;SDS011;2070;51.042;7.056;2023-04-03T04:53:20;1.43;;;1.00;;
4112;SDS011;2070;51.042;7.056;2023-04-03T04:55:46;3.97;;;1.83;;
4112;SDS011;2070;51.042;7.056;2023-04-03T04:58:11;7.53;;;1.20;;
4112;SDS011;2070;51.042;7.056;2023-04-03T05:00:36;1.60;;;1.50;;
4112;SDS011;2070;51.042;7.056;2023-04-03T05:03:01;3.80;;;1.33;;
4112;SDS011;2070;51.042;7.056;2023-04-03T05:05:26;2.60;;;1.10;;
4112;SDS011;2070;51.042;7.056;2023-04-03T05:07:52;1.40;;;0.93;;
4112;SDS011;2070;51.042;7.056;2023-04-03T05:10:17;1.80;;;1.30;;
4112;SDS011;2070;51.042;7.056;2023-04-03T05:12:43;1.40;;;1.00;;
4112;SDS011;2070;51.042;7.056;2023-04-03T05:15:08;3.70;;;1.20;;
4112;SDS011;2070;51.042;7.056;2023-04-03T05:17:33;1.60;;;1.23;;
4112;SDS011;2070;51.042;7.056;2023-04-03T05:19:58;1.67;;;1.57;;
4112;SDS011;2070;51.042;7.056;2023-04-03T05:22:24;11.83;;;1.57;;
4112;SDS011;2070;51.042;7.056;2023-04-03T05:24:49;7.10;;;1.37;;
4112;SDS011;2070;51.042;7.056;2023-04-03T05:27:14;1.07;;;0.97;;
4112;SDS011;2070;51.042;7.056;2023-04-03T05:29:40;1.23;;;1.00;;
4112;SDS011;2070;51.042;7.056;2023-04-03T05:32:09;4.73;;;2.10;;
4112;SDS011;2070;51.042;7.056;2023-04-03T05:34:34;1.27;;;1.17;;
4112;SDS011;2070;51.042;7.056;2023-04-03T05:36:59;5.47;;;1.97;;
4112;SDS011;2070;51.042;7.056;2023-04-03T05:39:25;2.40;;;1.10;;
4112;SDS011;2070;51.042;7.056;2023-04-03T05:41:50;1.53;;;1.20;;
4112;SDS011;2070;51.042;7.056;2023-04-03T05:44:15;5.10;;;1.40;;
4112;SDS011;2070;51.042;7.056;2023-04-03T05:46:41;1.83;;;1.70;;
4112;SDS011;2070;51.042;7.056;2023-04-03T05:49:06;1.20;;;1.10;;
4112;SDS011;2070;51.042;7.056;2023-04-03T05:51:33;9.50;;;1.50;;
4112;SDS011;2070;51.042;7.056;2023-04-03T05:54:00;3.90;;;1.67;;
4112;SDS011;2070;51.042;7.056;2023-04-03T05:56:27;7.07;;;1.23;;
4112;SDS011;2070;51.042;7.056;2023-04-03T05:58:53;5.60;;;2.10;;
4112;SDS011;2070;51.042;7.056;2023-04-03T06:01:18;3.47;;;1.20;;
4112;SDS011;2070;51.042;7.056;2023-04-03T06:03:43;5.10;;;1.20;;
4112;SDS011;2070;51.042;7.056;2023-04-03T06:06:10;6.23;;;1.27;;
4112;SDS011;2070;51.042;7.056;2023-04-03T06:08:36;6.73;;;2.10;;
4112;SDS011;2070;51.042;7.056;2023-04-03T06:11:03;3.63;;;1.83;;
4112;SDS011;2070;51.042;7.056;2023-04-03T06:13:28;4.73;;;1.30;;
4112;SDS011;2070;51.042;7.056;2023-04-03T06:15:54;3.57;;;1.57;;
4112;SDS011;2070;51.042;7.056;2023-04-03T06:18:19;8.00;;;2.13;;
4112;SDS011;2070;51.042;7.056;2023-04-03T06:20:45;6.17;;;1.80;;
4112;SDS011;2070;51.042;7.056;2023-04-03T06:23:10;5.47;;;1.87;;
4112;SDS011;2070;51.042;7.056;2023-04-03T06:25:36;2.17;;;1.43;;
4112;SDS011;2070;51.042;7.056;2023-04-03T06:28:02;5.80;;;1.90;;
4112;SDS011;2070;51.042;7.056;2023-04-03T06:30:27;1.43;;;1.33;;
4112;SDS011;2070;51.042;7.056;2023-04-03T06:32:52;6.00;;;1.60;;
4112;SDS011;2070;51.042;7.056;2023-04-03T06:35:17;2.33;;;1.23;;
4112;SDS011;2070;51.042;7.056;2023-04-03T06:37:43;2.90;;;1.40;;
4112;SDS011;2070;51.042;7.056;2023-04-03T06:40:12;1.87;;;1.47;;
4112;SDS011;2070;51.042;7.056;2023-04-03T06:42:39;2.20;;;0.80;;
4112;SDS011;2070;51.042;7.056;2023-04-03T06:45:05;4.60;;;1.77;;
4112;SDS011;2070;51.042;7.056;2023-04-03T06:47:30;11.53;;;1.70;;
4112;SDS011;2070;51.042;7.056;2023-04-03T06:49:56;2.20;;;0.80;;
4112;SDS011;2070;51.042;7.056;2023-04-03T06:52:22;1.80;;;1.33;;
4112;SDS011;2070;51.042;7.056;2023-04-03T06:54:47;5.00;;;1.00;;
4112;SDS011;2070;51.042;7.056;2023-04-03T06:57:12;4.83;;;1.10;;
4112;SDS011;2070;51.042;7.056;2023-04-03T06:59:38;11.83;;;2.50;;
4112;SDS011;2070;51.042;7.056;2023-04-03T07:02:03;1.97;;;1.20;;
4112;SDS011;2070;51.042;7.056;2023-04-03T07:04:29;1.10;;;0.90;;
4112;SDS011;2070;51.042;7.056;2023-04-03T07:06:54;3.93;;;1.10;;
4112;SDS011;2070;51.042;7.056;2023-04-03T07:09:19;5.57;;;0.70;;
4112;SDS011;2070;51.042;7.056;2023-04-03T07:11:44;5.60;;;1.47;;
4112;SDS011;2070;51.042;7.056;2023-04-03T07:14:10;1.17;;;0.87;;
4112;SDS011;2070;51.042;7.056;2023-04-03T07:16:35;4.30;;;1.03;;
4112;SDS011;2070;51.042;7.056;2023-04-03T07:19:01;1.50;;;0.87;;
4112;SDS011;2070;51.042;7.056;2023-04-03T07:21:26;1.17;;;0.83;;
4112;SDS011;2070;51.042;7.056;2023-04-03T07:23:51;5.07;;;1.10;;
4112;SDS011;2070;51.042;7.056;2023-04-03T07:26:17;4.30;;;1.00;;
4112;SDS011;2070;51.042;7.056;2023-04-03T07:28:42;5.23;;;0.93;;
4112;SDS011;2070;51.042;7.056;2023-04-03T07:31:12;1.67;;;0.80;;
4112;SDS011;2070;51.042;7.056;2023-04-03T07:33:38;3.43;;;1.33;;
4112;SDS011;2070;51.042;7.056;2023-04-03T07:36:04;1.97;;;0.97;;
4112;SDS011;2070;51.042;7.056;2023-04-03T07:38:31;6.60;;;1.20;;
4112;SDS011;2070;51.042;7.056;2023-04-03T07:40:57;1.33;;;0.90;;
4112;SDS011;2070;51.042;7.056;2023-04-03T07:43:22;14.43;;;1.50;;
4112;SDS011;2070;51.042;7.056;2023-04-03T07:45:49;1.57;;;0.83;;
4112;SDS011;2070;51.042;7.056;2023-04-03T07:48:16;2.87;;;0.90;;
4112;SDS011;2070;51.042;7.056;2023-04-03T07:50:42;1.20;;;0.70;;
4112;SDS011;2070;51.042;7.056;2023-04-03T07:53:07;3.63;;;1.17;;
4112;SDS011;2070;51.042;7.056;2023-04-03T07:55:33;8.63;;;1.33;;
4112;SDS011;2070;51.042;7.056;2023-04-03T07:57:58;9.73;;;1.03;;
4112;SDS011;2070;51.042;7.056;2023-04-03T08:00:23;1.87;;;1.40;;
4112;SDS011;2070;51.042;7.056;2023-04-03T08:02:49;1.13;;;0.70;;
4112;SDS011;2070;51.042;7.056;2023-04-03T08:05:18;51.83;;;5.15;;
4112;SDS011;2070;51.042;7.056;2023-04-03T08:07:43;1.03;;;0.80;;
4112;SDS011;2070;51.042;7.056;2023-04-03T08:10:08;4.67;;;1.47;;
4112;SDS011;2070;51.042;7.056;2023-04-03T08:12:33;2.93;;;1.20;;
4112;SDS011;2070;51.042;7.056;2023-04-03T08:14:59;2.03;;;1.20;;
4112;SDS011;2070;51.042;7.056;2023-04-03T08:17:26;4.87;;;1.00;;
4112;SDS011;2070;51.042;7.056;2023-04-03T08:19:51;3.43;;;1.10;;
4112;SDS011;2070;51.042;7.056;2023-04-03T08:22:16;2.23;;;1.20;;
4112;SDS011;2070;51.042;7.056;2023-04-03T08:24:41;2.50;;;1.00;;
4112;SDS011;2070;51.042;7.056;2023-04-03T08:27:06;1.40;;;0.93;;
4112;SDS011;2070;51.042;7.056;2023-04-03T08:29:32;1.30;;;0.70;;
4112;SDS011;2070;51.042;7.056;2023-04-03T08:31:57;2.50;;;0.77;;
4112;SDS011;2070;51.042;7.056;2023-04-03T08:34:22;1.20;;;0.80;;
4112;SDS011;2070;51.042;7.056;2023-04-03T08:36:48;1.90;;;0.97;;
4112;SDS011;2070;51.042;7.056;2023-04-03T08:39:13;4.27;;;1.50;;
4112;SDS011;2070;51.042;7.056;2023-04-03T08:41:39;18.83;;;0.90;;
4112;SDS011;2070;51.042;7.056;2023-04-03T08:44:12;2.97;;;1.33;;
4112;SDS011;2070;51.042;7.056;2023-04-03T08:49:26;1.37;;;1.27;;
4112;SDS011;2070;51.042;7.056;2023-04-03T08:51:53;4.20;;;1.43;;
4112;SDS011;2070;51.042;7.056;2023-04-03T08:55:02;1.97;;;1.07;;
4112;SDS011;2070;51.042;7.056;2023-04-03T08:57:09;3.43;;;1.47;;
4112;SDS011;2070;51.042;7.056;2023-04-03T08:59:36;1.30;;;1.03;;
4112;SDS011;2070;51.042;7.056;2023-04-03T09:02:04;5.20;;;1.53;;
4112;SDS011;2070;51.042;7.056;2023-04-03T09:04:41;3.70;;;1.00;;
4112;SDS011;2070;51.042;7.056;2023-04-03T09:07:13;4.43;;;0.97;;
4112;SDS011;2070;51.042;7.056;2023-04-03T09:09:41;2.20;;;0.83;;
4112;SDS011;2070;51.042;7.056;2023-04-03T09:12:27;2.37;;;0.90;;
4112;SDS011;2070;51.042;7.056;2023-04-03T09:22:56;4.23;;;1.53;;
4112;SDS011;2070;51.042;7.056;2023-04-03T09:25:34;4.80;;;1.03;;
4112;SDS011;2070;51.042;7.056;2023-04-03T09:28:02;2.50;;;0.70;;
4112;SDS011;2070;51.042;7.056;2023-04-03T09:30:27;3.10;;;1.00;;
4112;SDS011;2070;51.042;7.056;2023-04-03T09:32:54;1.63;;;0.87;;
4112;SDS011;2070;51.042;7.056;2023-04-03T09:37:46;1.83;;;1.07;;
4112;SDS011;2070;51.042;7.056;2023-04-03T09:42:53;1.67;;;1.00;;
4112;SDS011;2070;51.042;7.056;2023-04-03T09:45:27;7.57;;;1.27;;
4112;SDS011;2070;51.042;7.056;2023-04-03T09:50:30;2.40;;;1.23;;
4112;SDS011;2070;51.042;7.056;2023-04-03T09:52:55;8.13;;;2.97;;
4112;SDS011;2070;51.042;7.056;2023-04-03T09:55:21;8.70;;;1.90;;
4112;SDS011;2070;51.042;7.056;2023-04-03T09:57:51;3.50;;;1.23;;
4112;SDS011;2070;51.042;7.056;2023-04-03T10:02:46;2.07;;;1.00;;
4112;SDS011;2070;51.042;7.056;2023-04-03T10:05:33;5.17;;;1.40;;
4112;SDS011;2070;51.042;7.056;2023-04-03T10:11:04;4.63;;;1.50;;
4112;SDS011;2070;51.042;7.056;2023-04-03T10:13:25;25.57;;;1.57;;
4112;SDS011;2070;51.042;7.056;2023-04-03T10:15:55;1.53;;;1.03;;
4112;SDS011;2070;51.042;7.056;2023-04-03T10:18:41;7.67;;;1.57;;
4112;SDS011;2070;51.042;7.056;2023-04-03T10:21:57;1.37;;;0.77;;
4112;SDS011;2070;51.042;7.056;2023-04-03T10:24:07;4.90;;;1.77;;
4112;SDS011;2070;51.042;7.056;2023-04-03T10:34:42;2.10;;;0.90;;
4112;SDS011;2070;51.042;7.056;2023-04-03T10:37:24;3.40;;;1.00;;
4112;SDS011;2070;51.042;7.056;2023-04-03T10:42:45;1.80;;;1.00;;
4112;SDS011;2070;51.042;7.056;2023-04-03T10:47:56;1.80;;;1.00;;
4112;SDS011;2070;51.042;7.056;2023-04-03T10:50:31;2.70;;;1.17;;
4112;SDS011;2070;51.042;7.056;2023-04-03T10:55:36;1.10;;;0.70;;
4112;SDS011;2070;51.042;7.056;2023-04-03T10:58:03;2.93;;;1.07;;
4112;SDS011;2070;51.042;7.056;2023-04-03T11:00:36;1.73;;;0.90;;
4112;SDS011;2070;51.042;7.056;2023-04-03T11:03:36;3.30;;;2.03;;
4112;SDS011;2070;51.042;7.056;2023-04-03T11:05:53;3.40;;;1.43;;
4112;SDS011;2070;51.042;7.056;2023-04-03T11:11:15;1.67;;;1.07;;
4112;SDS011;2070;51.042;7.056;2023-04-03T11:13:43;2.37;;;1.27;;
4112;SDS011;2070;51.042;7.056;2023-04-03T11:16:08;2.10;;;1.30;;
4112;SDS011;2070;51.042;7.056;2023-04-03T11:23:34;1.40;;;0.67;;
4112;SDS011;2070;51.042;7.056;2023-04-03T11:26:07;6.00;;;0.80;;
4112;SDS011;2070;51.042;7.056;2023-04-03T11:28:33;1.53;;;0.77;;
4112;SDS011;2070;51.042;7.056;2023-04-03T11:34:53;3.10;;;1.00;;
4112;SDS011;2070;51.042;7.056;2023-04-03T11:36:48;1.00;;;0.70;;
4112;SDS011;2070;51.042;7.056;2023-04-03T11:39:22;0.90;;;0.60;;
4112;SDS011;2070;51.042;7.056;2023-04-03T11:41:48;3.67;;;1.13;;
4112;SDS011;2070;51.042;7.056;2023-04-03T11:46:58;1.37;;;0.70;;
4112;SDS011;2070;51.042;7.056;2023-04-03T11:52:10;3.43;;;0.97;;
4112;SDS011;2070;51.042;7.056;2023-04-03T11:57:02;1.33;;;1.23;;
4112;SDS011;2070;51.042;7.056;2023-04-03T11:59:45;5.13;;;0.87;;
4112;SDS011;2070;51.042;7.056;2023-04-03T12:10:43;2.57;;;0.83;;
4112;SDS011;2070;51.042;7.056;2023-04-03T12:13:27;1.57;;;1.00;;
4112;SDS011;2070;51.042;7.056;2023-04-03T12:15:53;2.43;;;0.97;;
4112;SDS011;2070;51.042;7.056;2023-04-03T12:20:58;1.10;;;0.67;;
4112;SDS011;2070;51.042;7.056;2023-04-03T12:25:52;2.97;;;1.10;;
4112;SDS011;2070;51.042;7.056;2023-04-03T12:28:23;2.97;;;0.93;;
4112;SDS011;2070;51.042;7.056;2023-04-03T12:30:49;5.27;;;1.13;;
4112;SDS011;2070;51.042;7.056;2023-04-03T12:33:19;3.67;;;0.93;;
4112;SDS011;2070;51.042;7.056;2023-04-03T12:35:54;2.40;;;1.07;;
4112;SDS011;2070;51.042;7.056;2023-04-03T12:46:23;2.17;;;0.73;;
4112;SDS011;2070;51.042;7.056;2023-04-03T12:48:52;2.70;;;0.93;;
4112;SDS011;2070;51.042;7.056;2023-04-03T12:51:22;0.90;;;0.80;;
4112;SDS011;2070;51.042;7.056;2023-04-03T12:53:51;1.57;;;1.00;;
4112;SDS011;2070;51.042;7.056;2023-04-03T12:56:19;2.00;;;1.10;;
4112;SDS011;2070;51.042;7.056;2023-04-03T12:58:46;10.13;;;1.57;;
4112;SDS011;2070;51.042;7.056;2023-04-03T13:01:15;11.10;;;1.00;;
4112;SDS011;2070;51.042;7.056;2023-04-03T13:03:45;2.97;;;1.17;;
4112;SDS011;2070;51.042;7.056;2023-04-03T13:06:17;1.77;;;1.10;;
4112;SDS011;2070;51.042;7.056;2023-04-03T13:11:39;4.57;;;1.37;;
4112;SDS011;2070;51.042;7.056;2023-04-03T13:14:14;2.13;;;1.20;;
4112;SDS011;2070;51.042;7.056;2023-04-03T13:16:39;2.73;;;1.13;;
4112;SDS011;2070;51.042;7.056;2023-04-03T13:19:06;3.60;;;1.30;;
4112;SDS011;2070;51.042;7.056;2023-04-03T13:21:31;2.43;;;0.70;;
4112;SDS011;2070;51.042;7.056;2023-04-03T13:23:58;5.53;;;1.43;;
4112;SDS011;2070;51.042;7.056;2023-04-03T13:26:29;2.07;;;0.83;;
4112;SDS011;2070;51.042;7.056;2023-04-03T13:28:57;1.10;;;0.50;;
4112;SDS011;2070;51.042;7.056;2023-04-03T13:31:27;2.97;;;1.33;;
4112;SDS011;2070;51.042;7.056;2023-04-03T13:36:35;5.37;;;1.40;;
4112;SDS011;2070;51.042;7.056;2023-04-03T13:39:03;2.03;;;0.80;;
4112;SDS011;2070;51.042;7.056;2023-04-03T13:41:33;2.63;;;1.77;;
4112;SDS011;2070;51.042;7.056;2023-04-03T13:44:15;2.23;;;0.83;;
4112;SDS011;2070;51.042;7.056;2023-04-03T13:46:41;1.40;;;0.70;;
4112;SDS011;2070;51.042;7.056;2023-04-03T13:49:17;1.87;;;1.00;;
4112;SDS011;2070;51.042;7.056;2023-04-03T13:51:42;1.70;;;0.93;;
4112;SDS011;2070;51.042;7.056;2023-04-03T13:54:21;3.50;;;1.93;;
4112;SDS011;2070;51.042;7.056;2023-04-03T13:56:47;2.40;;;1.00;;
4112;SDS011;2070;51.042;7.056;2023-04-03T14:02:09;3.23;;;1.00;;
4112;SDS011;2070;51.042;7.056;2023-04-03T14:04:46;1.27;;;0.90;;
4112;SDS011;2070;51.042;7.056;2023-04-03T14:07:12;4.60;;;0.90;;
4112;SDS011;2070;51.042;7.056;2023-04-03T14:09:37;7.07;;;1.07;;
4112;SDS011;2070;51.042;7.056;2023-04-03T14:12:07;6.20;;;1.03;;
4112;SDS011;2070;51.042;7.056;2023-04-03T14:14:34;1.30;;;1.20;;
4112;SDS011;2070;51.042;7.056;2023-04-03T14:17:00;2.27;;;1.17;;
4112;SDS011;2070;51.042;7.056;2023-04-03T14:19:28;3.13;;;1.70;;
4112;SDS011;2070;51.042;7.056;2023-04-03T14:21:53;4.20;;;1.37;;
4112;SDS011;2070;51.042;7.056;2023-04-03T14:24:20;3.60;;;1.80;;
4112;SDS011;2070;51.042;7.056;2023-04-03T14:26:46;2.03;;;0.83;;
4112;SDS011;2070;51.042;7.056;2023-04-03T14:29:12;1.10;;;0.80;;
4112;SDS011;2070;51.042;7.056;2023-04-03T14:31:39;4.70;;;1.73;;
4112;SDS011;2070;51.042;7.056;2023-04-03T14:34:04;2.37;;;1.10;;
4112;SDS011;2070;51.042;7.056;2023-04-03T14:36:30;1.40;;;1.10;;
4112;SDS011;2070;51.042;7.056;2023-04-03T14:38:56;1.73;;;0.80;;
4112;SDS011;2070;51.042;7.056;2023-04-03T14:41:23;1.63;;;0.87;;
4112;SDS011;2070;51.042;7.056;2023-04-03T14:43:48;2.57;;;1.40;;
4112;SDS011;2070;51.042;7.056;2023-04-03T14:46:19;1.87;;;1.00;;
4112;SDS011;2070;51.042;7.056;2023-04-03T14:48:45;2.43;;;0.90;;
4112;SDS011;2070;51.042;7.056;2023-04-03T14:51:11;11.77;;;1.10;;
4112;SDS011;2070;51.042;7.056;2023-04-03T14:53:36;5.90;;;2.63;;
4112;SDS011;2070;51.042;7.056;2023-04-03T14:56:02;3.13;;;0.97;;
4112;SDS011;2070;51.042;7.056;2023-04-03T14:58:27;3.20;;;1.67;;
4112;SDS011;2070;51.042;7.056;2023-04-03T15:00:52;1.30;;;1.00;;
4112;SDS011;2070;51.042;7.056;2023-04-03T15:03:18;2.40;;;1.03;;
4112;SDS011;2070;51.042;7.056;2023-04-03T15:05:45;5.27;;;0.90;;
4112;SDS011;2070;51.042;7.056;2023-04-03T15:10:42;2.07;;;0.90;;
4112;SDS011;2070;51.042;7.056;2023-04-03T15:13:07;2.77;;;1.07;;
4112;SDS011;2070;51.042;7.056;2023-04-03T15:15:33;3.50;;;0.97;;
4112;SDS011;2070;51.042;7.056;2023-04-03T15:17:59;2.80;;;1.20;;
4112;SDS011;2070;51.042;7.056;2023-04-03T15:20:25;1.87;;;0.80;;
4112;SDS011;2070;51.042;7.056;2023-04-03T15:22:51;4.80;;;0.77;;
4112;SDS011;2070;51.042;7.056;2023-04-03T15:25:16;3.77;;;1.10;;
4112;SDS011;2070;51.042;7.056;2023-04-03T15:27:43;7.63;;;1.00;;
4112;SDS011;2070;51.042;7.056;2023-04-03T15:30:11;2.90;;;1.07;;
4112;SDS011;2070;51.042;7.056;2023-04-03T15:32:37;3.90;;;1.37;;
4112;SDS011;2070;51.042;7.056;2023-04-03T15:35:03;6.13;;;1.57;;
4112;SDS011;2070;51.042;7.056;2023-04-03T15:37:28;2.97;;;1.47;;
4112;SDS011;2070;51.042;7.056;2023-04-03T15:39:53;1.90;;;0.77;;
4112;SDS011;2070;51.042;7.056;2023-04-03T15:42:18;1.17;;;0.93;;
4112;SDS011;2070;51.042;7.056;2023-04-03T15:44:44;1.63;;;0.90;;
4112;SDS011;2070;51.042;7.056;2023-04-03T15:47:09;1.90;;;0.97;;
4112;SDS011;2070;51.042;7.056;2023-04-03T15:49:34;4.33;;;1.30;;
4112;SDS011;2070;51.042;7.056;2023-04-03T15:52:00;10.00;;;1.43;;
4112;SDS011;2070;51.042;7.056;2023-04-03T15:54:25;1.40;;;1.00;;
4112;SDS011;2070;51.042;7.056;2023-04-03T15:56:51;1.57;;;0.90;;
4112;SDS011;2070;51.042;7.056;2023-04-03T15:59:16;1.03;;;0.80;;
4112;SDS011;2070;51.042;7.056;2023-04-03T16:01:41;1.07;;;0.97;;
4112;SDS011;2070;51.042;7.056;2023-04-03T16:04:07;3.13;;;1.37;;
4112;SDS011;2070;51.042;7.056;2023-04-03T16:06:33;0.90;;;0.80;;
4112;SDS011;2070;51.042;7.056;2023-04-03T16:08:58;2.13;;;0.83;;
4112;SDS011;2070;51.042;7.056;2023-04-03T16:11:24;1.03;;;0.80;;
4112;SDS011;2070;51.042;7.056;2023-04-03T16:13:51;1.40;;;0.73;;
4112;SDS011;2070;51.042;7.056;2023-04-03T16:16:16;1.70;;;1.30;;
4112;SDS011;2070;51.042;7.056;2023-04-03T16:18:41;4.33;;;1.00;;
4112;SDS011;2070;51.042;7.056;2023-04-03T16:21:06;2.47;;;1.13;;
4112;SDS011;2070;51.042;7.056;2023-04-03T16:23:32;1.90;;;0.80;;
4112;SDS011;2070;51.042;7.056;2023-04-03T16:25:58;4.30;;;1.60;;
4112;SDS011;2070;51.042;7.056;2023-04-03T16:28:24;5.07;;;1.00;;
4112;SDS011;2070;51.042;7.056;2023-04-03T16:30:49;3.43;;;1.40;;
4112;SDS011;2070;51.042;7.056;2023-04-03T16:33:14;1.20;;;0.57;;
4112;SDS011;2070;51.042;7.056;2023-04-03T16:35:39;6.43;;;1.20;;
4112;SDS011;2070;51.042;7.056;2023-04-03T16:38:07;2.13;;;1.13;;
4112;SDS011;2070;51.042;7.056;2023-04-03T16:40:32;4.00;;;0.87;;
4112;SDS011;2070;51.042;7.056;2023-04-03T16:42:58;2.13;;;1.00;;
4112;SDS011;2070;51.042;7.056;2023-04-03T16:45:24;1.23;;;0.90;;
4112;SDS011;2070;51.042;7.056;2023-04-03T16:47:49;2.40;;;0.60;;
4112;SDS011;2070;51.042;7.056;2023-04-03T16:50:14;2.50;;;0.80;;
4112;SDS011;2070;51.042;7.056;2023-04-03T16:52:40;1.33;;;0.87;;